createdAt,value
2023-03-31T00:02:13.369Z,5.43
2023-03-31T00:04:46.494Z,6.70
2023-03-31T00:07:14.817Z,4.37
2023-03-31T00:09:46.117Z,4.40
2023-03-31T00:12:14.130Z,4.77
2023-03-31T00:14:43.227Z,5.40
2023-03-31T00:17:10.817Z,6.93
2023-03-31T00:19:40.123Z,6.37
2023-03-31T00:22:07.549Z,5.20
2023-03-31T00:24:35.636Z,5.67
2023-03-31T00:27:03.786Z,5.00
2023-03-31T00:29:31.381Z,4.70
2023-03-31T00:32:00.493Z,6.10
2023-03-31T00:34:27.912Z,5.00
2023-03-31T00:36:56.479Z,7.50
2023-03-31T00:39:25.276Z,5.17
2023-03-31T00:41:52.640Z,5.83
2023-03-31T00:44:22.843Z,3.20
2023-03-31T00:46:53.390Z,3.70
2023-03-31T00:49:24.740Z,6.53
2023-03-31T00:51:53.900Z,5.60
2023-03-31T00:54:23.418Z,6.30
2023-03-31T00:56:53.150Z,5.23
2023-03-31T00:59:20.727Z,4.33
2023-03-31T01:01:50.575Z,5.80
2023-03-31T01:04:22.402Z,5.23
2023-03-31T01:06:57.392Z,4.97
2023-03-31T01:09:25.164Z,5.43
2023-03-31T01:11:52.542Z,4.33
2023-03-31T01:14:19.952Z,5.23
2023-03-31T01:16:47.437Z,3.53
2023-03-31T01:19:20.701Z,7.43
2023-03-31T01:22:17.404Z,3.10
2023-03-31T01:25:01.871Z,2.87
2023-03-31T01:27:38.570Z,3.83
2023-03-31T01:30:26.693Z,6.93
2023-03-31T01:33:01.919Z,4.47
2023-03-31T01:35:48.073Z,3.03
2023-03-31T01:38:36.171Z,7.53
2023-03-31T01:41:18.615Z,4.87
2023-03-31T01:43:49.510Z,7.20
2023-03-31T01:46:21.397Z,5.40
2023-03-31T01:48:50.665Z,7.70
2023-03-31T01:51:19.951Z,5.80
2023-03-31T01:53:51.256Z,3.97
2023-03-31T01:56:22.374Z,5.63
2023-03-31T01:58:52.121Z,3.90
2023-03-31T02:01:22.183Z,6.20
2023-03-31T02:03:53.658Z,5.50
2023-03-31T02:06:24.528Z,4.60
2023-03-31T02:08:54.437Z,6.17
2023-03-31T02:11:23.830Z,5.17
2023-03-31T02:13:52.596Z,5.07
2023-03-31T02:16:24.350Z,6.13
2023-03-31T02:18:53.075Z,8.20
2023-03-31T02:21:22.797Z,6.63
2023-03-31T02:23:52.291Z,3.20
2023-03-31T02:26:21.740Z,3.77
2023-03-31T02:28:50.643Z,7.30
2023-03-31T02:31:22.817Z,3.47
2023-03-31T02:33:51.706Z,4.43
2023-03-31T02:36:19.510Z,6.53
2023-03-31T02:38:48.903Z,5.97
2023-03-31T02:41:16.482Z,6.77
2023-03-31T02:43:43.835Z,4.07
2023-03-31T02:46:13.058Z,7.60
2023-03-31T02:48:42.133Z,3.83
2023-03-31T02:51:20.039Z,5.10
2023-03-31T02:53:57.221Z,4.07
2023-03-31T02:56:36.048Z,3.67
2023-03-31T02:59:16.617Z,4.63
2023-03-31T03:01:57.130Z,5.30
2023-03-31T03:04:34.141Z,5.00
2023-03-31T03:07:04.856Z,4.60
2023-03-31T03:09:36.730Z,4.80
2023-03-31T03:12:10.304Z,5.10
2023-03-31T03:14:41.190Z,5.47
2023-03-31T03:17:11.677Z,4.73
2023-03-31T03:19:39.013Z,5.20
2023-03-31T03:22:08.707Z,3.93
2023-03-31T03:24:36.600Z,4.83
2023-03-31T03:27:04.152Z,3.37
2023-03-31T03:29:31.486Z,6.33
2023-03-31T03:31:58.883Z,4.53
2023-03-31T03:34:27.720Z,3.90
2023-03-31T03:36:55.309Z,3.97
2023-03-31T03:39:22.904Z,4.90
2023-03-31T03:41:50.250Z,3.43
2023-03-31T03:44:17.851Z,2.87
2023-03-31T03:46:45.509Z,4.30
2023-03-31T03:49:12.983Z,2.97
2023-03-31T03:51:41.693Z,2.80
2023-03-31T03:54:09.081Z,3.37
2023-03-31T03:56:36.442Z,1.67
2023-03-31T03:59:03.824Z,3.57
2023-03-31T04:01:31.529Z,4.50
2023-03-31T04:03:58.939Z,4.50
2023-03-31T04:06:26.976Z,4.37
2023-03-31T04:08:55.637Z,2.20
2023-03-31T04:11:23.238Z,2.53
2023-03-31T04:13:50.705Z,5.90
2023-03-31T04:16:18.204Z,2.90
2023-03-31T04:18:45.642Z,2.83
2023-03-31T04:21:15.446Z,1.27
2023-03-31T04:23:46.722Z,3.67
2023-03-31T04:26:16.468Z,5.30
2023-03-31T04:28:46.798Z,3.63
2023-03-31T04:31:16.541Z,3.10
2023-03-31T04:33:46.075Z,2.37
2023-03-31T04:36:17.913Z,3.40
2023-03-31T04:38:46.830Z,3.73
2023-03-31T04:41:14.304Z,3.90
2023-03-31T04:43:43.211Z,4.43
2023-03-31T04:46:11.578Z,3.43
2023-03-31T04:48:38.990Z,2.00
2023-03-31T04:51:06.763Z,2.67
2023-03-31T04:53:34.332Z,6.07
2023-03-31T04:56:01.862Z,4.73
2023-03-31T04:58:29.259Z,6.33
2023-03-31T05:00:58.028Z,4.00
2023-03-31T05:03:25.639Z,2.97
2023-03-31T05:05:53.092Z,2.80
2023-03-31T05:08:21.178Z,5.73
2023-03-31T05:10:48.655Z,6.53
2023-03-31T05:13:16.260Z,5.03
2023-03-31T05:15:45.052Z,2.20
2023-03-31T05:18:14.188Z,2.63
2023-03-31T05:20:42.760Z,5.27
2023-03-31T05:23:10.123Z,3.37
2023-03-31T05:25:37.694Z,4.40
2023-03-31T05:28:06.004Z,5.40
2023-03-31T05:30:33.377Z,5.70
2023-03-31T05:33:00.999Z,2.87
2023-03-31T05:35:30.286Z,5.17
2023-03-31T05:37:57.750Z,4.63
2023-03-31T05:40:25.690Z,3.57
2023-03-31T05:42:53.038Z,4.20
2023-03-31T05:45:20.414Z,6.37
2023-03-31T05:47:47.877Z,3.60
2023-03-31T05:50:15.276Z,7.70
2023-03-31T05:52:44.021Z,4.93
2023-03-31T05:55:11.557Z,3.40
2023-03-31T05:57:38.947Z,6.97
2023-03-31T06:00:10.441Z,5.30
2023-03-31T06:02:37.968Z,6.90
2023-03-31T06:05:06.303Z,5.67
2023-03-31T06:07:33.698Z,5.77
2023-03-31T06:10:02.418Z,5.53
2023-03-31T06:12:29.758Z,5.83
2023-03-31T06:14:57.135Z,3.70
2023-03-31T06:17:24.547Z,7.67
2023-03-31T06:19:51.934Z,5.27
2023-03-31T06:22:19.287Z,4.13
2023-03-31T06:24:46.575Z,7.47
2023-03-31T06:27:15.708Z,9.47
2023-03-31T06:29:43.050Z,8.57
2023-03-31T06:32:10.626Z,5.30
2023-03-31T06:34:38.096Z,7.67
2023-03-31T06:37:05.544Z,8.03
2023-03-31T06:39:32.947Z,6.23
2023-03-31T06:42:00.358Z,5.90
2023-03-31T06:44:29.144Z,5.10
2023-03-31T06:46:56.829Z,5.20
2023-03-31T06:49:24.219Z,4.27
2023-03-31T06:51:52.482Z,3.13
2023-03-31T06:54:19.857Z,4.73
2023-03-31T06:56:47.267Z,6.23
2023-03-31T06:59:14.647Z,4.67
2023-03-31T07:01:45.333Z,7.20
2023-03-31T07:04:12.704Z,5.20
2023-03-31T07:06:40.106Z,6.07
2023-03-31T07:09:07.540Z,8.77
2023-03-31T07:11:35.003Z,7.73
2023-03-31T07:14:02.363Z,5.80
2023-03-31T07:16:29.837Z,6.20
2023-03-31T07:18:59.691Z,5.33
2023-03-31T07:21:27.242Z,7.33
2023-03-31T07:23:54.635Z,5.20
2023-03-31T07:26:22.233Z,8.07
2023-03-31T07:28:49.641Z,6.53
2023-03-31T07:31:17.118Z,7.03
2023-03-31T07:33:44.569Z,4.90
2023-03-31T07:36:14.395Z,6.27
2023-03-31T07:38:42.694Z,5.13
2023-03-31T07:41:11.745Z,6.00
2023-03-31T07:43:39.763Z,8.57
2023-03-31T07:46:08.507Z,11.53
2023-03-31T07:48:36.410Z,5.97
2023-03-31T07:51:04.292Z,5.30
2023-03-31T07:53:33.532Z,9.03
2023-03-31T07:56:01.311Z,5.93
2023-03-31T07:58:29.124Z,5.93
2023-03-31T08:00:56.618Z,6.23
2023-03-31T08:03:24.226Z,5.93
2023-03-31T08:05:52.527Z,6.17
2023-03-31T08:08:19.951Z,2.87
2023-03-31T08:10:49.222Z,4.50
2023-03-31T08:13:17.065Z,5.13
2023-03-31T08:15:45.030Z,3.07
2023-03-31T08:18:12.558Z,7.50
2023-03-31T08:20:40.085Z,5.20
2023-03-31T08:23:11.387Z,4.03
2023-03-31T08:25:39.222Z,4.63
2023-03-31T08:28:10.806Z,4.20
2023-03-31T08:30:38.558Z,1.73
2023-03-31T08:33:06.085Z,3.07
2023-03-31T08:35:33.501Z,1.90
2023-03-31T08:38:02.063Z,2.17
2023-03-31T08:40:30.333Z,5.73
2023-03-31T08:42:59.493Z,4.27
2023-03-31T08:45:31.671Z,2.50
2023-03-31T08:48:00.291Z,1.80
2023-03-31T08:50:29.091Z,3.93
2023-03-31T08:53:00.234Z,1.23
2023-03-31T08:55:32.419Z,1.97
2023-03-31T08:58:02.023Z,1.83
2023-03-31T09:00:32.190Z,2.60
2023-03-31T09:03:01.850Z,5.00
2023-03-31T09:05:59.560Z,2.53
2023-03-31T09:08:36.184Z,3.43
2023-03-31T09:11:12.021Z,4.70
2023-03-31T09:13:56.714Z,5.80
2023-03-31T09:16:27.531Z,2.83
2023-03-31T09:18:56.799Z,2.97
2023-03-31T09:21:27.166Z,3.67
2023-03-31T09:23:57.222Z,3.63
2023-03-31T09:26:27.823Z,2.67
2023-03-31T09:28:56.893Z,3.70
2023-03-31T09:31:25.863Z,2.47
2023-03-31T09:33:55.394Z,5.27
2023-03-31T09:36:23.737Z,3.70
2023-03-31T09:38:51.753Z,2.70
2023-03-31T09:41:19.862Z,1.97
2023-03-31T09:43:48.205Z,2.73
2023-03-31T09:46:18.081Z,2.60
2023-03-31T09:48:51.210Z,2.00
2023-03-31T09:51:19.750Z,2.17
2023-03-31T09:53:50.163Z,2.07
2023-03-31T09:56:32.764Z,1.53
2023-03-31T09:59:02.263Z,3.30
2023-03-31T10:01:30.285Z,2.07
2023-03-31T10:03:59.055Z,1.20
2023-03-31T10:06:26.934Z,2.23
2023-03-31T10:08:56.187Z,3.10
2023-03-31T10:11:24.057Z,2.07
2023-03-31T10:13:59.780Z,2.33
2023-03-31T10:16:29.723Z,1.10
2023-03-31T10:19:11.884Z,2.37
2023-03-31T10:21:40.870Z,1.30
2023-03-31T10:24:11.402Z,2.30
2023-03-31T10:26:39.094Z,3.47
2023-03-31T10:29:11.307Z,2.63
2023-03-31T10:31:38.894Z,2.00
2023-03-31T10:34:07.097Z,4.03
2023-03-31T10:36:35.184Z,3.07
2023-03-31T10:39:07.709Z,2.13
2023-03-31T10:41:35.362Z,1.57
2023-03-31T10:44:03.499Z,1.63
2023-03-31T10:46:41.546Z,3.57
2023-03-31T10:49:15.555Z,2.13
2023-03-31T10:51:49.456Z,1.93
2023-03-31T10:54:18.629Z,2.67
2023-03-31T10:56:48.990Z,2.90
2023-03-31T10:59:25.398Z,2.23
2023-03-31T11:02:00.328Z,3.13
2023-03-31T11:04:38.940Z,3.57
2023-03-31T11:07:10.358Z,2.63
2023-03-31T11:09:45.414Z,3.23
2023-03-31T11:12:18.296Z,3.53
2023-03-31T11:14:52.401Z,2.37
2023-03-31T11:17:27.685Z,2.43
2023-03-31T11:19:58.593Z,3.07
2023-03-31T11:22:30.565Z,3.30
2023-03-31T11:25:07.380Z,1.57
2023-03-31T11:27:42.574Z,1.75
2023-03-31T11:30:13.374Z,1.80
2023-03-31T11:32:58.708Z,1.77
2023-03-31T11:35:43.816Z,2.80
2023-03-31T11:38:21.875Z,3.78
2023-03-31T11:40:56.960Z,2.42
2023-03-31T11:43:28.353Z,4.07
2023-03-31T11:46:00.811Z,2.20
2023-03-31T11:48:33.610Z,3.17
2023-03-31T11:51:02.454Z,4.45
2023-03-31T11:53:31.482Z,2.92
2023-03-31T11:56:02.225Z,4.45
2023-03-31T11:58:33.479Z,2.75
2023-03-31T12:01:04.622Z,2.85
2023-03-31T12:03:35.655Z,5.68
2023-03-31T12:06:06.325Z,2.03
2023-03-31T12:08:37.376Z,2.88
2023-03-31T12:11:08.558Z,2.50
2023-03-31T12:13:39.998Z,3.15
2023-03-31T12:16:10.628Z,3.53
2023-03-31T12:18:41.292Z,3.13
2023-03-31T12:21:10.969Z,2.80
2023-03-31T12:23:41.483Z,2.25
2023-03-31T12:26:13.703Z,3.55
2023-03-31T12:28:41.989Z,4.45
2023-03-31T12:31:12.467Z,3.42
2023-03-31T12:33:41.246Z,3.00
2023-03-31T12:36:17.133Z,2.17
2023-03-31T12:38:52.120Z,3.45
2023-03-31T12:41:26.783Z,2.70
2023-03-31T12:44:03.598Z,3.00
2023-03-31T12:46:36.781Z,3.70
2023-03-31T12:49:11.073Z,2.60
2023-03-31T12:51:56.149Z,3.83
2023-03-31T12:54:34.483Z,4.63
2023-03-31T12:57:14.807Z,2.42
2023-03-31T12:59:42.689Z,2.25
2023-03-31T13:02:20.644Z,3.95
2023-03-31T13:04:49.591Z,3.22
2023-03-31T13:07:31.890Z,5.00
2023-03-31T13:09:59.725Z,2.58
2023-03-31T13:12:31.718Z,3.05
2023-03-31T13:15:00.413Z,5.28
2023-03-31T13:17:30.031Z,2.45
2023-03-31T13:19:58.864Z,3.15
2023-03-31T13:22:31.485Z,1.55
2023-03-31T13:25:13.823Z,2.38
2023-03-31T13:27:49.602Z,3.45
2023-03-31T13:30:31.875Z,2.88
2023-03-31T13:33:05.203Z,4.40
2023-03-31T13:35:34.051Z,4.63
2023-03-31T13:38:07.864Z,2.60
2023-03-31T13:40:52.626Z,3.00
2023-03-31T13:43:35.037Z,2.30
2023-03-31T13:46:14.904Z,3.90
2023-03-31T13:48:48.621Z,5.63
2023-03-31T13:51:30.369Z,3.53
2023-03-31T13:54:18.085Z,1.60
2023-03-31T13:56:50.714Z,2.28
2023-03-31T13:59:28.683Z,3.08
2023-03-31T14:02:03.691Z,2.85
2023-03-31T14:04:39.136Z,2.03
2023-03-31T14:07:09.049Z,3.35
2023-03-31T14:09:37.144Z,2.83
2023-03-31T14:12:19.442Z,2.17
2023-03-31T14:14:47.182Z,2.42
2023-03-31T14:17:16.818Z,1.38
2023-03-31T14:20:01.867Z,2.33
2023-03-31T14:22:35.555Z,1.92
2023-03-31T14:25:07.079Z,1.67
2023-03-31T14:27:43.653Z,1.98
2023-03-31T14:30:17.726Z,2.03
2023-03-31T14:32:51.157Z,2.25
2023-03-31T14:35:26.654Z,3.00
2023-03-31T14:37:54.727Z,5.97
2023-03-31T14:40:22.242Z,4.47
2023-03-31T14:42:50.728Z,2.05
2023-03-31T14:45:19.168Z,1.25
2023-03-31T14:47:55.916Z,1.00
2023-03-31T14:50:28.961Z,1.88
2023-03-31T14:52:56.721Z,0.82
2023-03-31T14:55:28.487Z,0.90
2023-03-31T14:58:00.732Z,0.82
2023-03-31T15:00:29.865Z,0.73
2023-03-31T15:02:59.063Z,2.97
2023-03-31T15:05:29.449Z,0.82
2023-03-31T15:08:00.199Z,0.98
2023-03-31T15:10:31.774Z,0.88
2023-03-31T15:12:59.219Z,1.83
2023-03-31T15:15:27.798Z,1.65
2023-03-31T15:17:55.418Z,2.38
2023-03-31T15:20:28.347Z,0.98
2023-03-31T15:22:56.672Z,1.30
2023-03-31T15:25:26.308Z,2.38
2023-03-31T15:27:56.061Z,1.98
2023-03-31T15:30:25.430Z,3.60
2023-03-31T15:32:56.833Z,2.25
2023-03-31T15:35:34.033Z,1.15
2023-03-31T15:38:02.250Z,1.38
2023-03-31T15:40:30.835Z,1.65
2023-03-31T15:43:07.068Z,1.35
2023-03-31T15:45:51.288Z,2.28
2023-03-31T15:48:24.435Z,1.00
2023-03-31T15:50:54.089Z,1.40
2023-03-31T15:53:28.371Z,1.50
2023-03-31T15:55:56.982Z,2.40
2023-03-31T15:58:25.625Z,1.10
2023-03-31T16:00:54.472Z,1.35
2023-03-31T16:03:26.668Z,0.77
2023-03-31T16:05:56.245Z,1.65
2023-03-31T16:08:25.879Z,4.80
2023-03-31T16:10:57.675Z,1.33
2023-03-31T16:13:25.604Z,1.92
2023-03-31T16:15:54.756Z,1.90
2023-03-31T16:18:26.723Z,1.60
2023-03-31T16:20:57.089Z,3.15
2023-03-31T16:23:26.280Z,1.35
2023-03-31T16:25:53.815Z,1.98
2023-03-31T16:28:23.568Z,1.73
2023-03-31T16:30:51.126Z,2.03
2023-03-31T16:33:19.418Z,2.22
2023-03-31T16:35:49.019Z,1.38
2023-03-31T16:38:18.436Z,2.83
2023-03-31T16:40:46.627Z,2.80
2023-03-31T16:43:17.276Z,2.80
2023-03-31T16:45:45.770Z,1.63
2023-03-31T16:48:16.703Z,2.92
2023-03-31T16:50:45.432Z,4.05
2023-03-31T16:53:13.527Z,2.60
2023-03-31T16:55:42.325Z,2.03
2023-03-31T16:58:09.793Z,5.13
2023-03-31T17:00:40.076Z,2.20
2023-03-31T17:03:08.173Z,2.97
2023-03-31T17:05:38.975Z,2.65
2023-03-31T17:08:08.405Z,4.22
2023-03-31T17:10:36.414Z,3.38
2023-03-31T17:13:05.309Z,4.15
2023-03-31T17:15:34.121Z,3.47
2023-03-31T17:18:02.090Z,2.00
2023-03-31T17:20:29.496Z,5.30
2023-03-31T17:22:57.146Z,3.50
2023-03-31T17:25:24.492Z,1.67
2023-03-31T17:27:52.060Z,4.05
2023-03-31T17:30:21.132Z,5.03
2023-03-31T17:32:50.642Z,3.08
2023-03-31T17:35:21.578Z,3.85
2023-03-31T17:37:50.407Z,3.25
2023-03-31T17:40:18.136Z,4.90
2023-03-31T17:42:47.114Z,3.80
2023-03-31T17:45:15.124Z,2.95
2023-03-31T17:47:45.220Z,2.55
2023-03-31T17:50:13.097Z,4.77
2023-03-31T17:52:40.952Z,5.18
2023-03-31T17:55:09.104Z,4.32
2023-03-31T17:57:37.152Z,3.17
2023-03-31T18:00:04.914Z,4.27
2023-03-31T18:02:32.581Z,2.47
2023-03-31T18:05:01.344Z,2.27
2023-03-31T18:07:28.813Z,2.50
2023-03-31T18:09:56.500Z,2.67
2023-03-31T18:12:23.979Z,3.83
2023-03-31T18:14:51.814Z,1.75
2023-03-31T18:17:19.494Z,2.57
2023-03-31T18:19:46.949Z,2.63
2023-03-31T18:22:15.742Z,1.43
2023-03-31T18:24:44.393Z,1.53
2023-03-31T18:27:11.895Z,2.83
2023-03-31T18:29:39.874Z,3.33
2023-03-31T18:32:07.782Z,1.47
2023-03-31T18:34:36.695Z,4.57
2023-03-31T18:37:05.416Z,1.53
2023-03-31T18:39:34.629Z,0.97
2023-03-31T18:42:02.810Z,4.03
2023-03-31T18:44:30.190Z,2.47
2023-03-31T18:46:57.665Z,1.97
2023-03-31T18:49:25.098Z,1.63
2023-03-31T18:51:53.665Z,1.40
2023-03-31T18:54:21.792Z,1.80
2023-03-31T18:56:50.689Z,1.03
2023-03-31T18:59:18.407Z,1.87
2023-03-31T19:01:46.055Z,1.63
2023-03-31T19:04:13.792Z,2.53
2023-03-31T19:06:41.132Z,1.73
2023-03-31T19:09:08.579Z,2.27
2023-03-31T19:11:36.177Z,1.93
2023-03-31T19:14:05.018Z,4.20
2023-03-31T19:16:32.566Z,2.75
2023-03-31T19:19:00.000Z,1.40
2023-03-31T19:21:32.401Z,3.50
2023-03-31T19:23:59.803Z,3.10
2023-03-31T19:26:28.445Z,2.03
2023-03-31T19:28:57.012Z,1.80
2023-03-31T19:31:26.003Z,2.30
2023-03-31T19:33:53.461Z,3.90
2023-03-31T19:36:21.273Z,3.33
2023-03-31T19:38:48.695Z,2.87
2023-03-31T19:41:18.206Z,2.43
2023-03-31T19:43:47.605Z,2.20
2023-03-31T19:46:15.544Z,3.23
2023-03-31T19:48:44.333Z,5.07
2023-03-31T19:51:11.846Z,3.13
2023-03-31T19:53:39.564Z,2.43
2023-03-31T19:56:08.020Z,3.17
2023-03-31T19:58:36.625Z,4.47
2023-03-31T20:01:05.429Z,2.83
2023-03-31T20:03:33.329Z,3.50
2023-03-31T20:06:06.978Z,3.83
2023-03-31T20:08:34.686Z,3.20
2023-03-31T20:11:02.298Z,3.93
2023-03-31T20:13:30.347Z,2.23
2023-03-31T20:16:01.782Z,3.47
2023-03-31T20:18:29.569Z,3.73
2023-03-31T20:21:04.438Z,3.23
2023-03-31T20:23:33.472Z,4.67
2023-03-31T20:26:02.080Z,3.23
2023-03-31T20:28:29.902Z,3.60
2023-03-31T20:30:57.305Z,2.47
2023-03-31T20:33:25.073Z,3.37
2023-03-31T20:36:00.609Z,4.57
2023-03-31T20:38:28.211Z,7.17
2023-03-31T20:40:57.784Z,4.87
2023-03-31T20:43:25.863Z,3.07
2023-03-31T20:45:54.740Z,4.37
2023-03-31T20:48:22.271Z,5.40
2023-03-31T20:50:50.553Z,3.43
2023-03-31T20:53:18.030Z,3.00
2023-03-31T20:55:46.310Z,3.73
2023-03-31T20:58:15.786Z,4.47
2023-03-31T21:00:43.337Z,5.37
2023-03-31T21:03:11.349Z,5.50
2023-03-31T21:05:43.252Z,4.13
2023-03-31T21:08:11.495Z,5.27
2023-03-31T21:10:43.412Z,2.97
2023-03-31T21:13:11.282Z,3.70
2023-03-31T21:15:40.345Z,4.60
2023-03-31T21:18:08.403Z,5.07
2023-03-31T21:20:35.937Z,6.80
2023-03-31T21:23:03.406Z,6.53
2023-03-31T21:25:32.342Z,5.43
2023-03-31T21:28:00.007Z,6.13
2023-03-31T21:30:28.136Z,4.03
2023-03-31T21:32:56.895Z,6.00
2023-03-31T21:35:24.315Z,5.77
2023-03-31T21:37:51.762Z,3.77
2023-03-31T21:40:19.342Z,4.53
2023-03-31T21:42:47.170Z,6.43
2023-03-31T21:45:14.592Z,5.10
2023-03-31T21:47:42.124Z,5.40
2023-03-31T21:50:11.354Z,4.40
2023-03-31T21:52:38.773Z,6.13
2023-03-31T21:55:06.779Z,7.90
2023-03-31T21:57:34.196Z,6.37
2023-03-31T22:00:01.554Z,4.53
2023-03-31T22:02:28.946Z,3.33
2023-03-31T22:04:56.382Z,2.83
2023-03-31T22:07:25.105Z,3.17
2023-03-31T22:09:52.527Z,6.33
2023-03-31T22:12:19.930Z,3.83
2023-03-31T22:14:47.288Z,4.37
2023-03-31T22:17:14.669Z,2.83
2023-03-31T22:19:42.737Z,3.57
2023-03-31T22:22:10.157Z,2.13
2023-03-31T22:24:38.895Z,4.20
2023-03-31T22:27:06.298Z,3.83
2023-03-31T22:29:33.832Z,4.60
2023-03-31T22:32:01.350Z,4.53
2023-03-31T22:34:28.740Z,2.40
2023-03-31T22:36:56.435Z,3.03
2023-03-31T22:39:23.871Z,5.53
2023-03-31T22:41:52.567Z,4.30
2023-03-31T22:44:20.042Z,4.30
2023-03-31T22:46:47.462Z,2.50
2023-03-31T22:49:15.739Z,4.00
2023-03-31T22:51:45.225Z,3.43
2023-03-31T22:54:13.934Z,2.43
2023-03-31T22:56:41.357Z,2.30
2023-03-31T22:59:10.382Z,3.83
2023-03-31T23:01:37.896Z,3.70
2023-03-31T23:04:05.449Z,3.50
2023-03-31T23:06:35.444Z,3.87
2023-03-31T23:09:03.480Z,3.83
2023-03-31T23:11:30.915Z,2.80
2023-03-31T23:13:58.351Z,4.70
2023-03-31T23:16:27.225Z,4.97
2023-03-31T23:18:55.868Z,3.30
2023-03-31T23:21:24.195Z,2.23
2023-03-31T23:23:53.636Z,4.03
2023-03-31T23:26:21.075Z,3.00
2023-03-31T23:28:49.526Z,4.37
2023-03-31T23:31:17.085Z,3.20
2023-03-31T23:33:45.786Z,2.77
2023-03-31T23:36:16.967Z,2.43
2023-03-31T23:38:45.008Z,4.10
2023-03-31T23:41:12.668Z,2.63
2023-03-31T23:43:40.781Z,3.10
2023-03-31T23:46:08.602Z,3.00
2023-03-31T23:48:36.506Z,3.53
2023-03-31T23:51:06.117Z,5.70
2023-03-31T23:53:33.696Z,2.37
2023-03-31T23:56:02.759Z,2.93
2023-03-31T23:58:30.907Z,4.90
